createdAt,value
2023-02-24T00:00:29.564Z,25.400
2023-02-24T00:01:24.043Z,26.400
2023-02-24T00:02:38.906Z,27.950
2023-02-24T00:03:24.937Z,28.400
2023-02-24T00:04:25.992Z,24.750
2023-02-24T00:05:43.394Z,29.600
2023-02-24T00:06:44.365Z,19.500
2023-02-24T00:07:33.185Z,22.950
2023-02-24T00:08:48.360Z,28.850
2023-02-24T00:09:41.096Z,29.600
2023-02-24T00:10:29.737Z,25.700
2023-02-24T00:11:25.925Z,24.850
2023-02-24T00:12:48.133Z,27.300
2023-02-24T00:13:36.717Z,26.650
2023-02-24T00:14:21.780Z,27.500
2023-02-24T00:15:31.404Z,26.100
2023-02-24T00:16:22.381Z,25.200
2023-02-24T00:17:30.074Z,24.600
2023-02-24T00:18:31.102Z,25.050
2023-02-24T00:19:22.630Z,22.950
2023-02-24T00:20:39.524Z,23.200
2023-02-24T00:21:25.303Z,23.000
2023-02-24T00:22:32.454Z,20.650
2023-02-24T00:23:27.558Z,21.350
2023-02-24T00:24:32.353Z,20.600
2023-02-24T00:25:20.501Z,20.250
2023-02-24T00:26:27.435Z,16.700
2023-02-24T00:27:20.633Z,19.700
2023-02-24T00:28:27.298Z,19.300
2023-02-24T00:29:37.044Z,17.750
2023-02-24T00:30:30.788Z,18.900
2023-02-24T00:31:22.675Z,18.500
2023-02-24T00:32:38.182Z,19.250
2023-02-24T00:33:31.655Z,20.200
2023-02-24T00:34:23.522Z,18.900
2023-02-24T00:35:30.562Z,19.300
2023-02-24T00:36:39.891Z,19.050
2023-02-24T00:37:33.319Z,18.800
2023-02-24T00:38:27.479Z,19.400
2023-02-24T00:39:25.703Z,19.500
2023-02-24T00:40:35.077Z,18.800
2023-02-24T00:41:29.722Z,17.900
2023-02-24T00:42:20.608Z,17.900
2023-02-24T00:43:20.454Z,18.800
2023-02-24T00:44:33.636Z,15.650
2023-02-24T00:45:31.603Z,17.100
2023-02-24T00:46:24.569Z,16.200
2023-02-24T00:47:40.508Z,15.850
2023-02-24T00:48:32.808Z,16.400
2023-02-24T00:49:27.216Z,14.550
2023-02-24T00:50:23.504Z,18.000
2023-02-24T00:51:41.394Z,15.300
2023-02-24T00:52:35.640Z,15.900
2023-02-24T00:53:28.376Z,14.900
2023-02-24T00:54:21.986Z,17.200
2023-02-24T00:55:29.107Z,15.500
2023-02-24T00:56:31.348Z,16.150
2023-02-24T00:57:22.701Z,17.200
2023-02-24T00:58:47.235Z,17.500
2023-02-24T00:59:39.919Z,14.500
2023-02-24T01:00:32.958Z,15.500
2023-02-24T01:01:26.245Z,17.000
2023-02-24T01:02:42.330Z,15.700
2023-02-24T01:03:33.863Z,16.900
2023-02-24T01:04:30.799Z,17.000
2023-02-24T01:05:21.937Z,13.600
2023-02-24T01:06:45.992Z,15.800
2023-02-24T01:07:41.110Z,13.800
2023-02-24T01:08:25.724Z,14.300
2023-02-24T01:09:22.071Z,15.900
2023-02-24T01:10:43.513Z,14.450
2023-02-24T01:11:32.586Z,17.100
2023-02-24T01:12:20.382Z,14.550
2023-02-24T01:13:47.908Z,12.400
2023-02-24T01:14:41.559Z,13.400
2023-02-24T01:15:28.663Z,12.300
2023-02-24T01:16:25.418Z,12.000
2023-02-24T01:17:24.872Z,13.600
2023-02-24T01:18:35.849Z,12.100
2023-02-24T01:19:22.281Z,12.550
2023-02-24T01:20:22.767Z,14.400
2023-02-24T01:21:44.806Z,11.100
2023-02-24T01:22:31.144Z,11.000
2023-02-24T01:23:29.228Z,11.100
2023-02-24T01:24:22.174Z,11.000
2023-02-24T01:25:39.731Z,11.300
2023-02-24T01:26:26.659Z,11.750
2023-02-24T01:27:26.484Z,16.000
2023-02-24T01:28:48.598Z,17.900
2023-02-24T01:29:35.359Z,17.000
2023-02-24T01:30:20.964Z,12.150
2023-02-24T01:31:28.541Z,11.800
2023-02-24T01:32:45.421Z,14.400
2023-02-24T01:33:30.253Z,17.100
2023-02-24T01:34:26.203Z,15.250
2023-02-24T01:35:22.512Z,13.700
2023-02-24T01:36:37.543Z,16.500
2023-02-24T01:37:25.229Z,16.700
2023-02-24T01:38:30.195Z,13.800
2023-02-24T01:39:23.124Z,12.200
2023-02-24T01:40:31.346Z,13.000
2023-02-24T01:41:34.401Z,14.500
2023-02-24T01:42:28.392Z,15.700
2023-02-24T01:43:21.373Z,17.000
2023-02-24T01:44:26.668Z,17.600
2023-02-24T01:45:22.214Z,17.550
2023-02-24T01:46:27.663Z,18.000
2023-02-24T01:47:22.178Z,14.300
2023-02-24T01:48:21.397Z,13.200
2023-02-24T01:49:31.145Z,12.350
2023-02-24T01:50:24.530Z,12.700
2023-02-24T01:51:29.931Z,16.900
2023-02-24T01:52:40.323Z,16.900
2023-02-24T01:53:30.941Z,19.400
2023-02-24T01:54:26.788Z,17.600
2023-02-24T01:55:24.193Z,15.300
2023-02-24T01:56:35.806Z,13.900
2023-02-24T01:57:29.703Z,16.950
2023-02-24T01:58:23.106Z,19.300
2023-02-24T01:59:21.193Z,18.500
2023-02-24T02:00:37.090Z,19.150
2023-02-24T02:01:28.430Z,14.600
2023-02-24T02:02:38.831Z,19.300
2023-02-24T02:03:42.391Z,20.800
2023-02-24T02:10:46.330Z,19.600
2023-02-24T02:11:42.412Z,19.200
2023-02-24T02:12:45.094Z,21.200
2023-02-24T02:13:31.917Z,21.100
2023-02-24T02:14:34.949Z,21.900
2023-02-24T02:20:29.330Z,20.050
2023-02-24T02:21:22.148Z,21.900
2023-02-24T02:22:42.201Z,21.550
2023-02-24T02:23:33.289Z,22.000
2023-02-24T02:24:27.030Z,22.500
2023-02-24T02:25:33.172Z,17.650
2023-02-24T02:26:38.464Z,15.100
2023-02-24T02:27:59.683Z,18.150
2023-02-24T02:28:23.966Z,20.000
2023-02-24T02:29:45.965Z,15.100
2023-02-24T02:30:25.030Z,16.000
2023-02-24T02:31:26.818Z,17.800
2023-02-24T02:32:23.465Z,15.700
2023-02-24T02:33:44.303Z,15.550
2023-02-24T02:34:36.778Z,19.200
2023-02-24T02:35:28.925Z,15.600
2023-02-24T02:36:22.212Z,16.750
2023-02-24T02:37:43.269Z,17.400
2023-02-24T02:38:29.671Z,23.600
2023-02-24T02:39:27.574Z,20.650
2023-02-24T02:40:22.066Z,21.000
2023-02-24T02:41:21.685Z,23.700
2023-02-24T02:42:24.386Z,23.400
2023-02-24T02:43:25.717Z,19.050
2023-02-24T02:44:46.658Z,20.500
2023-02-24T02:45:35.180Z,18.850
2023-02-24T02:46:21.411Z,18.300
2023-02-24T02:47:25.682Z,19.100
2023-02-24T02:48:42.701Z,15.200
2023-02-24T02:49:29.163Z,18.000
2023-02-24T02:50:30.258Z,17.250
2023-02-24T02:51:23.430Z,16.100
2023-02-24T02:52:36.818Z,16.400
2023-02-24T02:53:23.417Z,15.700
2023-02-24T02:54:27.953Z,16.000
2023-02-24T02:55:45.678Z,17.500
2023-02-24T02:56:30.176Z,17.200
2023-02-24T02:57:34.468Z,17.100
2023-02-24T02:58:21.987Z,18.500
2023-02-24T02:59:21.265Z,19.500
2023-02-24T03:00:26.493Z,18.200
2023-02-24T03:01:33.831Z,18.900
2023-02-24T03:02:26.598Z,19.200
2023-02-24T03:03:33.918Z,17.500
2023-02-24T03:04:23.581Z,17.800
2023-02-24T03:05:31.966Z,21.800
2023-02-24T03:06:26.480Z,24.300
2023-02-24T03:07:27.957Z,18.400
2023-02-24T03:08:38.634Z,22.900
2023-02-24T03:09:29.194Z,24.200
2023-02-24T03:10:22.469Z,20.250
2023-02-24T03:11:23.725Z,19.900
2023-02-24T03:12:38.109Z,22.700
2023-02-24T03:13:29.856Z,23.500
2023-02-24T03:14:21.980Z,24.100
2023-02-24T03:15:40.848Z,23.600
2023-02-24T03:16:33.464Z,25.600
2023-02-24T03:17:26.481Z,25.300
2023-02-24T03:18:26.890Z,23.000
2023-02-24T03:19:42.331Z,23.500
2023-02-24T03:20:33.147Z,19.800
2023-02-24T03:21:27.852Z,17.350
2023-02-24T03:22:22.769Z,17.300
2023-02-24T03:23:37.263Z,16.900
2023-02-24T03:24:31.692Z,17.000
2023-02-24T03:25:23.064Z,16.800
2023-02-24T03:26:21.306Z,16.050
2023-02-24T03:27:35.280Z,18.100
2023-02-24T03:28:31.956Z,20.000
2023-02-24T03:29:26.989Z,21.800
2023-02-24T03:30:42.506Z,23.800
2023-02-24T03:31:34.333Z,25.000
2023-02-24T03:32:28.227Z,22.700
2023-02-24T03:33:21.375Z,18.500
2023-02-24T03:34:44.246Z,17.300
2023-02-24T03:35:36.136Z,16.900
2023-02-24T03:36:27.598Z,19.050
2023-02-24T03:37:20.973Z,16.600
2023-02-24T03:38:33.100Z,17.200
2023-02-24T03:39:31.387Z,18.500
2023-02-24T03:40:26.431Z,18.350
2023-02-24T03:41:46.905Z,22.800
2023-02-24T03:42:42.127Z,21.000
2023-02-24T03:43:25.371Z,16.900
2023-02-24T03:44:25.524Z,16.450
2023-02-24T03:45:42.040Z,16.700
2023-02-24T03:46:36.858Z,16.350
2023-02-24T03:47:29.428Z,16.400
2023-02-24T03:48:21.400Z,16.500
2023-02-24T03:49:29.395Z,16.400
2023-02-24T03:50:36.180Z,16.300
2023-02-24T03:51:30.265Z,16.400
2023-02-24T03:52:22.089Z,16.800
2023-02-24T03:53:43.968Z,17.550
2023-02-24T03:54:22.501Z,18.000
2023-02-24T03:55:25.885Z,17.650
2023-02-24T03:56:50.181Z,18.400
2023-02-24T03:57:36.382Z,19.200
2023-02-24T03:58:23.500Z,20.550
2023-02-24T03:59:26.361Z,21.800
2023-02-24T04:00:22.227Z,23.200
2023-02-24T04:01:31.261Z,23.900
2023-02-24T04:02:29.556Z,24.100
2023-02-24T04:03:24.157Z,23.300
2023-02-24T04:04:41.186Z,21.150
2023-02-24T04:05:26.021Z,23.600
2023-02-24T04:06:30.405Z,23.700
2023-02-24T04:07:23.830Z,21.900
2023-02-24T04:08:36.218Z,26.000
2023-02-24T04:09:22.737Z,23.100
2023-02-24T04:10:26.312Z,25.000
2023-02-24T04:11:22.619Z,22.500
2023-02-24T04:12:30.459Z,22.200
2023-02-24T04:13:35.409Z,22.750
2023-02-24T04:14:29.438Z,20.700
2023-02-24T04:15:21.009Z,21.250
2023-02-24T04:16:24.333Z,22.400
2023-02-24T04:17:30.477Z,25.100
2023-02-24T04:18:23.334Z,20.750
2023-02-24T04:19:32.620Z,21.500
2023-02-24T04:20:40.362Z,22.000
2023-02-24T04:21:33.307Z,20.200
2023-02-24T04:22:25.074Z,20.300
2023-02-24T04:23:27.240Z,19.300
2023-02-24T04:24:34.172Z,21.400
2023-02-24T04:25:28.850Z,23.650
2023-02-24T04:26:20.420Z,25.600
2023-02-24T04:27:22.033Z,25.300
2023-02-24T04:28:23.936Z,24.200
2023-02-24T04:29:29.164Z,27.000
2023-02-24T04:30:24.750Z,28.000
2023-02-24T04:31:38.381Z,27.800
2023-02-24T04:32:31.276Z,22.000
2023-02-24T04:33:25.817Z,25.100
2023-02-24T04:34:26.789Z,26.300
2023-02-24T04:35:42.028Z,28.100
2023-02-24T04:36:34.751Z,28.100
2023-02-24T04:37:28.597Z,28.200
2023-02-24T04:38:21.605Z,27.400
2023-02-24T04:39:22.305Z,27.200
2023-02-24T04:40:29.289Z,27.100
2023-02-24T04:41:22.150Z,25.650
2023-02-24T04:42:46.962Z,25.100
2023-02-24T04:43:39.037Z,26.400
2023-02-24T04:44:30.653Z,26.700
2023-02-24T04:45:26.959Z,25.550
2023-02-24T04:46:58.844Z,25.100
2023-02-24T04:47:33.814Z,24.400
2023-02-24T04:48:25.298Z,20.150
2023-02-24T04:49:51.087Z,20.200
2023-02-24T04:50:41.872Z,19.700
2023-02-24T04:51:32.064Z,19.700
2023-02-24T04:52:29.665Z,19.800
2023-02-24T04:53:21.132Z,20.700
2023-02-24T04:54:38.633Z,20.350
2023-02-24T04:55:29.617Z,20.700
2023-02-24T04:56:22.962Z,21.800
2023-02-24T04:57:37.681Z,25.700
2023-02-24T04:58:40.505Z,26.800
2023-02-24T04:59:33.588Z,28.100
2023-02-24T05:00:26.423Z,23.300
2023-02-24T05:01:42.626Z,26.050
2023-02-24T05:02:29.364Z,25.700
2023-02-24T05:03:25.897Z,25.000
2023-02-24T05:04:51.068Z,24.300
2023-02-24T05:05:45.821Z,25.600
2023-02-24T05:06:38.202Z,26.000
2023-02-24T05:07:21.421Z,25.200
2023-02-24T05:08:24.054Z,24.550
2023-02-24T05:09:39.636Z,25.350
2023-02-24T05:10:30.194Z,27.100
2023-02-24T05:11:23.738Z,24.900
2023-02-24T05:12:49.850Z,21.900
2023-02-24T05:13:27.614Z,22.100
2023-02-24T05:14:22.465Z,23.500
2023-02-24T05:15:26.967Z,24.800
2023-02-24T05:16:23.052Z,23.850
2023-02-24T05:17:35.594Z,25.350
2023-02-24T05:18:27.056Z,25.300
2023-02-24T05:19:21.546Z,24.500
2023-02-24T05:20:38.569Z,25.700
2023-02-24T05:21:25.684Z,27.100
2023-02-24T05:22:31.100Z,23.300
2023-02-24T05:23:24.970Z,21.900
2023-02-24T05:24:21.942Z,25.200
2023-02-24T05:25:21.616Z,27.200
2023-02-24T05:26:24.134Z,26.950
2023-02-24T05:27:41.108Z,24.700
2023-02-24T05:28:43.893Z,24.500
2023-02-24T05:29:35.390Z,20.700
2023-02-24T05:30:30.763Z,18.650
2023-02-24T05:31:39.710Z,18.400
2023-02-24T05:32:24.643Z,17.600
2023-02-24T05:33:30.420Z,17.200
2023-02-24T05:34:20.873Z,18.050
2023-02-24T05:35:31.742Z,17.000
2023-02-24T05:36:32.098Z,17.800
2023-02-24T05:37:33.459Z,17.900
2023-02-24T05:38:27.463Z,22.500
2023-02-24T05:39:40.446Z,24.100
2023-02-24T05:40:32.154Z,25.900
2023-02-24T05:41:24.090Z,26.950
2023-02-24T05:42:36.801Z,27.200
2023-02-24T05:43:21.477Z,28.000
2023-02-24T05:44:38.133Z,28.200
2023-02-24T05:45:30.995Z,28.000
2023-02-24T05:46:22.890Z,27.400
2023-02-24T05:47:29.021Z,27.600
2023-02-24T05:48:29.228Z,25.350
2023-02-24T05:49:24.214Z,24.500
2023-02-24T05:50:49.773Z,23.500
2023-02-24T05:51:42.752Z,23.900
2023-02-24T05:52:23.284Z,24.300
2023-02-24T05:53:28.618Z,20.300
2023-02-24T05:54:22.633Z,19.000
2023-02-24T05:55:33.355Z,22.500
2023-02-24T05:56:27.368Z,20.450
2023-02-24T05:57:28.412Z,19.750
2023-02-24T05:58:26.959Z,22.200
2023-02-24T05:59:41.132Z,23.200
2023-02-24T06:00:33.205Z,23.100
2023-02-24T06:01:26.137Z,23.100
2023-02-24T06:02:37.108Z,19.900
2023-02-24T06:03:30.679Z,18.100
2023-02-24T06:04:22.866Z,17.400
2023-02-24T06:05:46.196Z,19.400
2023-02-24T06:06:44.265Z,23.800
2023-02-24T06:07:37.559Z,22.200
2023-02-24T06:08:28.607Z,22.300
2023-02-24T06:09:24.640Z,24.150
2023-02-24T06:10:37.492Z,23.500
2023-02-24T06:11:26.838Z,25.400
2023-02-24T06:12:21.461Z,20.900
2023-02-24T06:13:48.379Z,17.600
2023-02-24T06:14:43.928Z,16.900
2023-02-24T06:15:30.284Z,17.400
2023-02-24T06:16:26.270Z,17.600
2023-02-24T06:17:39.805Z,17.800
2023-02-24T06:18:30.895Z,20.600
2023-02-24T06:19:24.137Z,21.200
2023-02-24T06:20:20.755Z,22.800
2023-02-24T06:21:35.152Z,20.800
2023-02-24T06:22:32.475Z,23.300
2023-02-24T06:23:32.513Z,24.200
2023-02-24T06:24:23.062Z,25.600
2023-02-24T06:25:34.911Z,26.900
2023-02-24T06:26:28.224Z,26.600
2023-02-24T06:27:22.267Z,27.300
2023-02-24T06:28:53.159Z,23.800
2023-02-24T06:29:37.674Z,26.250
2023-02-24T06:30:35.651Z,25.200
2023-02-24T06:31:27.662Z,26.100
2023-02-24T06:32:23.729Z,27.250
2023-02-24T06:33:32.410Z,26.600
2023-02-24T06:34:25.359Z,26.900
2023-02-24T06:35:53.965Z,22.350
2023-02-24T06:36:38.854Z,23.100
2023-02-24T06:37:26.116Z,22.800
2023-02-24T06:38:34.164Z,22.450
2023-02-24T06:39:25.798Z,22.400
2023-02-24T06:40:32.839Z,24.800
2023-02-24T06:41:23.334Z,23.700
2023-02-24T06:42:57.586Z,24.200
2023-02-24T06:43:28.845Z,21.800
2023-02-24T06:44:27.746Z,20.000
2023-02-24T06:45:37.870Z,19.450
2023-02-24T06:46:30.689Z,20.500
2023-02-24T06:47:35.485Z,18.700
2023-02-24T06:48:22.544Z,17.900
2023-02-24T06:49:28.984Z,19.700
2023-02-24T06:50:46.513Z,21.550
2023-02-24T06:51:32.833Z,25.000
2023-02-24T06:52:42.009Z,26.850
2023-02-24T06:53:33.003Z,25.800
2023-02-24T06:54:27.305Z,25.000
2023-02-24T06:55:25.667Z,25.500
2023-02-24T06:56:32.342Z,26.300
2023-02-24T06:57:25.210Z,23.400
2023-02-24T06:58:37.863Z,24.300
2023-02-24T06:59:20.345Z,24.800
2023-02-24T07:00:30.604Z,24.950
2023-02-24T07:01:32.070Z,25.200
2023-02-24T07:02:24.532Z,24.500
2023-02-24T07:03:35.748Z,24.850
2023-02-24T07:04:28.903Z,26.200
2023-02-24T07:05:23.032Z,24.850
2023-02-24T07:06:23.361Z,25.450
2023-02-24T07:07:42.223Z,25.500
2023-02-24T07:08:35.639Z,23.900
2023-02-24T07:09:28.183Z,24.700
2023-02-24T07:10:38.057Z,24.300
2023-02-24T07:11:25.340Z,26.700
2023-02-24T07:12:24.402Z,22.800
2023-02-24T07:13:26.785Z,24.650
2023-02-24T07:14:47.187Z,25.200
2023-02-24T07:15:40.381Z,26.600
2023-02-24T07:16:34.268Z,28.900
2023-02-24T07:17:23.030Z,25.200
2023-02-24T07:18:34.820Z,25.300
2023-02-24T07:19:29.992Z,25.050
2023-02-24T07:20:21.277Z,25.550
2023-02-24T07:22:24.779Z,27.800
2023-02-24T07:23:39.205Z,29.500
2023-02-24T07:24:27.765Z,28.400
2023-02-24T07:25:38.933Z,26.800
2023-02-24T07:26:33.272Z,21.500
2023-02-24T07:27:24.873Z,21.500
2023-02-24T07:28:22.360Z,22.900
2023-02-24T07:29:42.310Z,27.000
2023-02-24T07:30:42.464Z,26.400
2023-02-24T07:31:27.939Z,25.800
2023-02-24T07:32:25.943Z,25.900
2023-02-24T07:33:23.117Z,28.950
2023-02-24T07:34:29.396Z,29.900
2023-02-24T07:35:24.922Z,28.100
2023-02-24T07:36:53.021Z,32.500
2023-02-24T07:37:46.301Z,34.000
2023-02-24T07:38:33.741Z,32.500
2023-02-24T07:39:24.717Z,32.900
2023-02-24T07:40:22.985Z,31.850
2023-02-24T07:41:33.167Z,32.300
2023-02-24T07:42:28.038Z,32.700
2023-02-24T07:43:56.414Z,28.700
2023-02-24T07:44:49.737Z,27.900
2023-02-24T07:45:31.626Z,28.100
2023-02-24T07:46:35.683Z,28.700
2023-02-24T07:47:27.865Z,23.000
2023-02-24T07:48:22.517Z,23.350
2023-02-24T07:49:30.791Z,24.200
2023-02-24T07:50:22.933Z,23.500
2023-02-24T07:51:36.128Z,24.700
2023-02-24T07:52:37.532Z,26.300
2023-02-24T07:53:25.217Z,24.900
2023-02-24T07:54:33.280Z,24.400
2023-02-24T07:55:24.881Z,29.500
2023-02-24T07:56:26.810Z,29.300
2023-02-24T07:57:27.553Z,31.400
2023-02-24T07:58:19.714Z,26.900
2023-02-24T07:59:40.859Z,30.200
2023-02-24T08:00:28.609Z,30.500
2023-02-24T08:01:38.300Z,33.100
2023-02-24T08:02:32.982Z,34.800
2023-02-24T08:03:23.830Z,30.900
2023-02-24T08:04:22.275Z,34.400
2023-02-24T08:05:24.161Z,32.050
2023-02-24T08:06:47.840Z,33.600
2023-02-24T08:07:26.389Z,24.000
2023-02-24T08:08:38.508Z,31.050
2023-02-24T08:09:35.389Z,30.500
2023-02-24T08:10:27.314Z,30.700
2023-02-24T08:11:24.551Z,27.100
2023-02-24T08:12:30.343Z,24.100
2023-02-24T08:13:21.477Z,30.600
2023-02-24T08:14:34.111Z,25.000
2023-02-24T08:15:21.258Z,27.700
2023-02-24T08:16:39.307Z,24.450
2023-02-24T08:17:30.779Z,30.500
2023-02-24T08:18:25.862Z,30.600
2023-02-24T08:19:34.423Z,33.200
2023-02-24T08:20:25.281Z,33.350
2023-02-24T08:21:37.188Z,34.700
2023-02-24T08:22:22.889Z,24.800
2023-02-24T08:23:44.247Z,24.750
2023-02-24T08:24:27.704Z,28.000
2023-02-24T08:25:31.673Z,33.700
2023-02-24T08:26:21.964Z,35.300
2023-02-24T08:27:30.614Z,28.050
2023-02-24T08:28:21.615Z,33.700
2023-02-24T08:29:26.001Z,31.900
2023-02-24T08:30:32.541Z,36.950
2023-02-24T08:31:40.800Z,34.700
2023-02-24T08:32:34.986Z,35.100
2023-02-24T08:33:23.264Z,36.800
2023-02-24T08:34:32.728Z,33.200
2023-02-24T08:35:27.676Z,31.100
2023-02-24T08:36:28.313Z,26.300
2023-02-24T08:37:51.177Z,25.000
2023-02-24T08:38:44.514Z,25.350
2023-02-24T08:39:39.151Z,24.200
2023-02-24T08:40:23.869Z,24.400
2023-02-24T08:41:22.487Z,23.500
2023-02-24T08:42:31.910Z,35.450
2023-02-24T08:43:22.732Z,28.300
2023-02-24T08:44:56.118Z,29.300
2023-02-24T08:45:49.594Z,26.200
2023-02-24T08:46:42.182Z,27.800
2023-02-24T08:47:28.754Z,30.700
2023-02-24T08:48:27.402Z,31.800
2023-02-24T08:49:22.957Z,30.500
2023-02-24T08:50:27.334Z,32.600
2023-02-24T08:51:23.136Z,30.200
2023-02-24T08:52:24.786Z,32.850
2023-02-24T08:53:38.855Z,33.700
2023-02-24T08:54:31.188Z,26.700
2023-02-24T08:55:30.877Z,27.400
2023-02-24T08:56:25.448Z,27.700
2023-02-24T08:57:32.582Z,27.300
2023-02-24T08:58:24.960Z,26.300
2023-02-24T08:59:44.540Z,25.800
2023-02-24T09:00:47.247Z,29.000
2023-02-24T09:01:34.712Z,28.400
2023-02-24T09:02:20.854Z,28.100
2023-02-24T09:03:23.865Z,28.400
2023-02-24T09:04:20.631Z,27.950
2023-02-24T09:05:27.710Z,31.200
2023-02-24T09:06:22.323Z,28.550
2023-02-24T09:07:49.883Z,27.250
2023-02-24T09:08:37.764Z,31.100
2023-02-24T09:09:24.270Z,30.200
2023-02-24T09:10:32.985Z,31.100
2023-02-24T09:11:26.780Z,30.900
2023-02-24T09:12:31.757Z,30.700
2023-02-24T09:14:09.215Z,27.900
2023-02-24T09:14:53.092Z,26.700
2023-02-24T09:15:32.945Z,27.200
2023-02-24T09:16:25.388Z,26.350
2023-02-24T09:17:37.982Z,27.400
2023-02-24T09:18:30.912Z,28.900
2023-02-24T09:19:23.213Z,28.900
2023-02-24T09:20:23.537Z,26.700
2023-02-24T09:21:23.164Z,25.100
2023-02-24T09:22:44.233Z,26.450
2023-02-24T09:23:30.316Z,26.200
2023-02-24T09:24:43.705Z,23.500
2023-02-24T09:25:34.351Z,24.200
2023-02-24T09:26:30.686Z,23.850
2023-02-24T09:27:20.432Z,24.000
2023-02-24T09:28:25.928Z,23.050
2023-02-24T09:29:31.077Z,23.250
2023-02-24T09:30:27.032Z,23.200
2023-02-24T09:31:21.173Z,22.050
2023-02-24T09:32:33.963Z,20.500
2023-02-24T09:33:33.250Z,22.750
2023-02-24T09:34:26.630Z,20.500
2023-02-24T09:35:21.439Z,20.400
2023-02-24T09:36:22.982Z,22.350
2023-02-24T09:37:27.233Z,25.500
2023-02-24T09:38:22.854Z,25.500
2023-02-24T09:39:44.001Z,23.900
2023-02-24T09:40:29.102Z,22.000
2023-02-24T09:41:26.773Z,19.250
2023-02-24T09:42:23.496Z,19.300
2023-02-24T09:43:28.626Z,21.200
2023-02-24T09:44:22.181Z,22.850
2023-02-24T09:45:24.566Z,23.200
2023-02-24T09:46:34.256Z,23.500
2023-02-24T09:47:28.796Z,24.000
2023-02-24T09:48:25.791Z,22.950
2023-02-24T09:49:21.101Z,22.900
2023-02-24T09:51:00.973Z,22.000
2023-02-24T09:51:28.083Z,23.800
2023-02-24T09:52:22.736Z,24.550
2023-02-24T09:53:33.165Z,24.800
2023-02-24T09:54:30.027Z,23.700
2023-02-24T09:55:24.943Z,26.200
2023-02-24T09:56:23.906Z,26.700
2023-02-24T09:57:23.068Z,27.500
2023-02-24T09:58:41.824Z,28.000
2023-02-24T09:59:25.083Z,27.100
2023-02-24T10:00:33.889Z,27.700
2023-02-24T10:01:28.895Z,28.200
2023-02-24T10:02:26.297Z,28.000
2023-02-24T10:03:22.044Z,28.150
2023-02-24T10:04:26.958Z,28.000
2023-02-24T10:05:26.627Z,27.250
2023-02-24T10:06:25.494Z,27.500
2023-02-24T10:07:21.662Z,27.700
2023-02-24T10:08:30.423Z,25.200
2023-02-24T10:09:42.786Z,27.200
2023-02-24T10:10:21.536Z,25.300
2023-02-24T10:11:33.007Z,25.250
2023-02-24T10:12:24.193Z,29.350
2023-02-24T10:13:23.197Z,28.700
2023-02-24T10:14:27.433Z,27.450
2023-02-24T10:15:29.190Z,26.450
2023-02-24T10:16:23.159Z,26.700
2023-02-24T10:17:22.707Z,28.550
2023-02-24T10:18:30.789Z,28.400
2023-02-24T10:19:28.182Z,27.450
2023-02-24T10:20:22.553Z,28.700
2023-02-24T10:21:26.438Z,28.700
2023-02-24T10:22:29.012Z,25.000
2023-02-24T10:23:43.320Z,26.000
2023-02-24T10:24:23.558Z,26.600
2023-02-24T10:25:21.658Z,27.450
2023-02-24T10:26:27.528Z,27.700
2023-02-24T10:27:27.506Z,27.050
2023-02-24T10:28:32.655Z,26.350
2023-02-24T10:29:23.204Z,26.200
2023-02-24T10:30:25.219Z,25.950
2023-02-24T10:31:21.466Z,25.000
2023-02-24T10:32:26.518Z,23.950
2023-02-24T10:33:23.395Z,24.950
2023-02-24T10:34:24.144Z,26.450
2023-02-24T10:35:22.612Z,25.300
2023-02-24T10:36:22.346Z,24.300
2023-02-24T10:37:27.988Z,25.450
2023-02-24T10:38:21.221Z,24.900
2023-02-24T10:39:30.237Z,24.100
2023-02-24T10:40:26.783Z,25.400
2023-02-24T10:41:23.319Z,24.950
2023-02-24T10:42:26.947Z,25.250
2023-02-24T10:43:22.298Z,24.300
2023-02-24T10:44:24.914Z,23.900
2023-02-24T10:45:23.149Z,24.900
2023-02-24T10:46:40.955Z,23.150
2023-02-24T10:47:26.587Z,23.700
2023-02-24T10:48:41.333Z,24.600
2023-02-24T10:49:32.711Z,21.500
2023-02-24T10:50:25.445Z,20.800
2023-02-24T10:51:29.312Z,21.350
2023-02-24T10:52:21.811Z,23.800
2023-02-24T10:53:31.407Z,21.200
2023-02-24T10:54:24.101Z,19.750
2023-02-24T10:55:23.113Z,21.100
2023-02-24T10:56:35.647Z,23.800
2023-02-24T10:57:28.508Z,23.350
2023-02-24T10:58:22.287Z,21.000
2023-02-24T10:59:22.526Z,21.400
2023-02-24T11:00:31.117Z,21.100
2023-02-24T11:01:24.213Z,21.400
2023-02-24T11:02:23.056Z,24.300
2023-02-24T11:03:33.258Z,25.600
2023-02-24T11:04:30.166Z,20.700
2023-02-24T11:05:25.492Z,19.100
2023-02-24T11:06:22.019Z,18.600
2023-02-24T11:07:28.808Z,19.700
2023-02-24T11:08:27.961Z,20.150
2023-02-24T11:09:22.843Z,18.100
2023-02-24T11:10:34.849Z,17.650
2023-02-24T11:11:29.752Z,18.400
2023-02-24T11:12:22.774Z,20.350
2023-02-24T11:13:23.561Z,19.650
2023-02-24T11:14:25.701Z,19.600
2023-02-24T11:15:30.860Z,17.350
2023-02-24T11:16:22.926Z,19.100
2023-02-24T11:17:32.882Z,18.600
2023-02-24T11:18:26.074Z,17.700
2023-02-24T11:19:24.475Z,16.900
2023-02-24T11:20:39.006Z,18.200
2023-02-24T11:21:32.104Z,20.100
2023-02-24T11:22:22.694Z,20.050
2023-02-24T11:23:23.117Z,19.300
2023-02-24T11:24:30.081Z,19.550
2023-02-24T11:25:29.201Z,19.050
2023-02-24T11:26:29.177Z,16.700
2023-02-24T11:27:21.702Z,17.200
2023-02-24T11:28:24.528Z,17.450
2023-02-24T11:29:23.252Z,17.500
2023-02-24T11:30:23.519Z,17.400
2023-02-24T11:31:33.202Z,17.400
2023-02-24T11:32:31.038Z,17.750
2023-02-24T11:33:24.902Z,15.900
2023-02-24T11:34:22.037Z,16.000
2023-02-24T11:35:31.351Z,15.500
2023-02-24T11:36:21.846Z,14.250
2023-02-24T11:37:25.660Z,15.500
2023-02-24T11:38:35.548Z,14.400
2023-02-24T11:39:29.015Z,15.000
2023-02-24T11:40:24.920Z,13.950
2023-02-24T11:41:21.750Z,14.450
2023-02-24T11:42:33.004Z,14.400
2023-02-24T11:43:28.730Z,14.300
2023-02-24T11:44:23.176Z,14.400
2023-02-24T11:45:22.050Z,15.750
2023-02-24T11:46:24.850Z,15.600
2023-02-24T11:47:25.061Z,14.500
2023-02-24T11:48:25.728Z,14.100
2023-02-24T11:49:30.725Z,13.950
2023-02-24T11:50:26.760Z,14.900
2023-02-24T11:51:23.586Z,15.050
2023-02-24T11:52:26.360Z,14.650
2023-02-24T11:53:28.640Z,12.800
2023-02-24T11:54:27.035Z,11.700
2023-02-24T11:55:20.829Z,11.450
2023-02-24T11:56:32.486Z,10.900
2023-02-24T11:57:22.836Z,12.400
2023-02-24T11:58:22.849Z,13.300
2023-02-24T11:59:23.450Z,13.100
2023-02-24T12:00:22.341Z,12.500
2023-02-24T12:01:25.488Z,14.100
2023-02-24T12:02:21.587Z,11.150
2023-02-24T12:03:25.320Z,11.050
2023-02-24T12:04:28.554Z,10.700
2023-02-24T12:05:23.430Z,10.900
2023-02-24T12:06:33.077Z,10.000
2023-02-24T12:07:28.806Z,9.500
2023-02-24T12:08:26.732Z,9.700
2023-02-24T12:09:22.281Z,9.100
2023-02-24T12:10:22.139Z,9.800
2023-02-24T12:11:28.246Z,8.900
2023-02-24T12:12:22.994Z,9.900
2023-02-24T12:13:28.681Z,9.200
2023-02-24T12:14:23.300Z,9.250
2023-02-24T12:15:24.822Z,8.100
2023-02-24T12:16:22.451Z,7.950
2023-02-24T12:17:23.393Z,7.200
2023-02-24T12:18:28.122Z,6.900
2023-02-24T12:19:23.917Z,6.400
2023-02-24T12:20:27.622Z,6.500
2023-02-24T12:21:26.564Z,5.900
2023-02-24T12:22:27.298Z,6.200
2023-02-24T12:23:21.696Z,5.700
2023-02-24T12:24:27.410Z,5.450
2023-02-24T12:25:26.911Z,5.650
2023-02-24T12:26:23.853Z,5.600
2023-02-24T12:27:33.685Z,5.650
2023-02-24T12:28:20.691Z,5.500
2023-02-24T12:29:26.090Z,5.500
2023-02-24T12:30:24.055Z,5.600
2023-02-24T12:31:24.601Z,5.500
2023-02-24T12:32:29.043Z,5.750
2023-02-24T12:33:22.726Z,5.800
2023-02-24T12:34:34.292Z,5.750
2023-02-24T12:35:23.859Z,5.450
2023-02-24T12:36:30.794Z,5.700
2023-02-24T12:37:30.409Z,5.350
2023-02-24T12:38:32.447Z,5.500
2023-02-24T12:39:27.937Z,5.500
2023-02-24T12:40:23.273Z,5.500
2023-02-24T12:41:32.950Z,5.300